createdAt,value
2024-03-16T00:00:52.873Z,85.94
2024-03-16T00:01:52.853Z,85.94
2024-03-16T00:02:52.835Z,85.83
2024-03-16T00:03:52.813Z,85.83
2024-03-16T00:04:52.823Z,86.04
2024-03-16T00:05:52.795Z,86.14
2024-03-16T00:06:52.847Z,86.04
2024-03-16T00:07:52.765Z,86.24
2024-03-16T00:08:52.747Z,86.14
2024-03-16T00:09:52.787Z,86.38
2024-03-16T00:10:52.843Z,86.49
2024-03-16T00:11:52.710Z,86.69
2024-03-16T00:12:52.742Z,86.69
2024-03-16T00:13:52.702Z,86.79
2024-03-16T00:14:52.693Z,86.90
2024-03-16T00:15:52.682Z,87.00
2024-03-16T00:16:52.683Z,87.10
2024-03-16T00:17:52.725Z,87.10
2024-03-16T00:18:52.684Z,87.20
2024-03-16T00:19:52.643Z,87.20
2024-03-16T00:20:52.616Z,87.20
2024-03-16T00:21:52.641Z,87.10
2024-03-16T00:22:52.609Z,87.10
2024-03-16T00:23:52.605Z,86.90
2024-03-16T00:24:52.675Z,86.79
2024-03-16T00:25:52.559Z,86.90
2024-03-16T00:26:52.559Z,86.69
2024-03-16T00:27:52.574Z,86.49
2024-03-16T00:28:52.551Z,86.38
2024-03-16T00:29:52.514Z,86.29
2024-03-16T00:30:52.561Z,86.14
2024-03-16T00:31:52.493Z,86.04
2024-03-16T00:32:52.556Z,85.94
2024-03-16T00:33:52.530Z,85.94
2024-03-16T00:34:52.492Z,86.14
2024-03-16T00:35:52.450Z,86.04
2024-03-16T00:36:52.508Z,86.04
2024-03-16T00:37:52.449Z,85.94
2024-03-16T00:38:52.450Z,85.94
2024-03-16T00:39:52.458Z,85.94
2024-03-16T00:40:52.393Z,85.94
2024-03-16T00:41:52.393Z,85.94
2024-03-16T00:42:52.459Z,85.94
2024-03-16T00:43:52.364Z,86.04
2024-03-16T00:44:52.359Z,86.04
2024-03-16T00:45:52.367Z,86.14
2024-03-16T00:46:52.337Z,86.14
2024-03-16T00:47:52.396Z,86.14
2024-03-16T00:48:52.339Z,86.14
2024-03-16T00:49:52.302Z,86.14
2024-03-16T00:50:52.303Z,86.29
2024-03-16T00:51:52.333Z,86.29
2024-03-16T00:52:52.326Z,86.38
2024-03-16T00:53:52.280Z,86.49
2024-03-16T00:54:52.275Z,86.49
2024-03-16T00:55:52.239Z,86.59
2024-03-16T00:56:52.235Z,86.69
2024-03-16T00:57:52.246Z,86.79
2024-03-16T00:58:52.230Z,86.79
2024-03-16T00:59:52.206Z,86.90
2024-03-16T01:00:52.339Z,87.00
2024-03-16T01:01:52.256Z,87.00
2024-03-16T01:02:52.173Z,87.00
2024-03-16T01:03:52.426Z,87.00
2024-03-16T01:04:52.147Z,86.90
2024-03-16T01:05:52.161Z,86.90
2024-03-16T01:06:52.167Z,86.90
2024-03-16T01:07:52.110Z,87.00
2024-03-16T01:08:52.107Z,87.00
2024-03-16T01:09:52.114Z,86.90
2024-03-16T01:10:52.118Z,86.90
2024-03-16T01:11:52.071Z,86.79
2024-03-16T01:12:52.118Z,86.79
2024-03-16T01:13:52.062Z,86.69
2024-03-16T01:14:52.028Z,86.79
2024-03-16T01:15:52.200Z,86.79
2024-03-16T01:16:52.006Z,86.90
2024-03-16T01:17:52.031Z,86.79
2024-03-16T01:18:52.109Z,86.79
2024-03-16T01:19:51.979Z,86.79
2024-03-16T01:20:51.982Z,86.79
2024-03-16T01:21:51.995Z,86.79
2024-03-16T01:22:51.944Z,86.94
2024-03-16T01:23:51.932Z,87.04
2024-03-16T01:24:51.983Z,87.04
2024-03-16T01:25:51.930Z,87.04
2024-03-16T01:26:51.902Z,87.14
2024-03-16T01:27:51.926Z,87.24
2024-03-16T01:28:51.899Z,87.24
2024-03-16T01:29:51.882Z,87.45
2024-03-16T01:30:51.882Z,87.35
2024-03-16T01:31:51.849Z,87.55
2024-03-16T01:32:51.877Z,87.55
2024-03-16T01:33:51.855Z,87.55
2024-03-16T01:34:51.825Z,87.65
2024-03-16T01:35:51.807Z,87.65
2024-03-16T01:36:51.813Z,87.65
2024-03-16T01:37:51.780Z,87.65
2024-03-16T01:38:51.788Z,87.76
2024-03-16T01:39:51.850Z,87.65
2024-03-16T01:40:51.771Z,87.76
2024-03-16T01:41:51.738Z,87.76
2024-03-16T01:42:51.813Z,87.65
2024-03-16T01:43:51.746Z,87.55
2024-03-16T01:44:51.705Z,87.45
2024-03-16T01:45:51.733Z,87.35
2024-03-16T01:46:51.686Z,87.24
2024-03-16T01:47:51.692Z,87.24
2024-03-16T01:48:51.718Z,87.14
2024-03-16T01:49:51.654Z,87.14
2024-03-16T01:50:51.643Z,86.73
2024-03-16T01:51:51.716Z,86.73
2024-03-16T01:52:51.657Z,86.83
2024-03-16T01:53:51.622Z,86.63
2024-03-16T01:54:51.680Z,86.69
2024-03-16T01:55:51.613Z,86.53
2024-03-16T01:56:51.575Z,86.43
2024-03-16T01:57:51.857Z,86.43
2024-03-16T01:58:51.557Z,86.43
2024-03-16T01:59:51.594Z,86.43
2024-03-16T02:00:51.601Z,86.53
2024-03-16T02:01:51.599Z,86.43
2024-03-16T02:02:51.527Z,86.53
2024-03-16T02:03:51.528Z,86.63
2024-03-16T02:04:51.485Z,86.83
2024-03-16T02:05:51.481Z,86.73
2024-03-16T02:06:51.499Z,86.73
2024-03-16T02:07:51.482Z,86.73
2024-03-16T02:08:51.448Z,86.73
2024-03-16T02:09:51.457Z,86.83
2024-03-16T02:10:51.447Z,86.73
2024-03-16T02:11:51.425Z,86.83
2024-03-16T02:12:51.443Z,86.83
2024-03-16T02:13:51.393Z,86.83
2024-03-16T02:14:51.376Z,86.83
2024-03-16T02:15:51.407Z,86.94
2024-03-16T02:16:51.386Z,87.04
2024-03-16T02:17:51.432Z,87.04
2024-03-16T02:18:51.367Z,87.04
2024-03-16T02:19:51.331Z,87.04
2024-03-16T02:20:51.308Z,86.94
2024-03-16T02:21:51.348Z,86.94
2024-03-16T02:22:51.289Z,86.94
2024-03-16T02:23:51.289Z,87.04
2024-03-16T02:24:51.306Z,86.83
2024-03-16T02:25:51.283Z,86.73
2024-03-16T02:26:51.265Z,86.79
2024-03-16T02:27:51.289Z,86.83
2024-03-16T02:28:51.229Z,86.73
2024-03-16T02:29:51.224Z,86.59
2024-03-16T02:30:51.240Z,86.79
2024-03-16T02:31:52.870Z,86.69
2024-03-16T02:32:51.230Z,86.59
2024-03-16T02:33:51.190Z,86.79
2024-03-16T02:34:51.156Z,86.59
2024-03-16T02:35:51.166Z,86.59
2024-03-16T02:36:51.188Z,86.49
2024-03-16T02:37:51.134Z,86.49
2024-03-16T02:38:51.126Z,86.38
2024-03-16T02:39:51.160Z,86.38
2024-03-16T02:40:51.108Z,86.59
2024-03-16T02:41:51.089Z,86.49
2024-03-16T02:42:51.147Z,86.29
2024-03-16T02:43:51.073Z,86.38
2024-03-16T02:44:51.076Z,86.29
2024-03-16T02:45:51.105Z,86.38
2024-03-16T02:46:51.028Z,86.38
2024-03-16T02:47:51.070Z,86.49
2024-03-16T02:48:51.047Z,86.38
2024-03-16T02:49:51.016Z,86.49
2024-03-16T02:50:50.987Z,86.38
2024-03-16T02:51:51.036Z,86.38
2024-03-16T02:52:50.975Z,86.38
2024-03-16T02:53:50.960Z,86.38
2024-03-16T02:54:51.032Z,86.29
2024-03-16T02:55:50.940Z,86.18
2024-03-16T02:56:50.927Z,86.49
2024-03-16T02:57:50.956Z,86.90
2024-03-16T02:58:50.911Z,87.51
2024-03-16T02:59:50.914Z,87.82
2024-03-16T03:00:50.999Z,87.71
2024-03-16T03:01:50.887Z,88.43
2024-03-16T03:02:50.863Z,88.68
2024-03-16T03:03:50.927Z,88.37
2024-03-16T03:04:50.831Z,88.88
2024-03-16T03:05:50.826Z,88.57
2024-03-16T03:06:50.848Z,88.68
2024-03-16T03:07:50.803Z,88.98
2024-03-16T03:08:50.803Z,89.29
2024-03-16T03:09:50.821Z,89.18
2024-03-16T03:10:50.787Z,88.88
2024-03-16T03:11:50.765Z,88.98
2024-03-16T03:12:51.011Z,88.88
2024-03-16T03:13:50.752Z,88.88
2024-03-16T03:14:50.722Z,88.98
2024-03-16T03:15:50.752Z,88.57
2024-03-16T03:16:50.707Z,88.37
2024-03-16T03:17:50.799Z,88.57
2024-03-16T03:18:50.715Z,88.37
2024-03-16T03:19:50.673Z,88.37
2024-03-16T03:20:50.659Z,88.37
2024-03-16T03:21:50.679Z,88.47
2024-03-16T03:22:50.649Z,87.96
2024-03-16T03:23:50.631Z,87.96
2024-03-16T03:24:50.666Z,87.85
2024-03-16T03:25:50.607Z,87.96
2024-03-16T03:26:50.615Z,87.96
2024-03-16T03:27:50.659Z,88.17
2024-03-16T03:28:50.581Z,88.17
2024-03-16T03:29:50.573Z,88.06
2024-03-16T03:30:50.640Z,88.06
2024-03-16T03:31:50.578Z,88.17
2024-03-16T03:32:50.556Z,88.37
2024-03-16T03:33:50.562Z,88.26
2024-03-16T03:34:50.506Z,88.06
2024-03-16T03:35:50.518Z,88.47
2024-03-16T03:36:50.531Z,88.68
2024-03-16T03:37:50.485Z,88.68
2024-03-16T03:38:50.495Z,88.78
2024-03-16T03:39:50.497Z,88.37
2024-03-16T03:40:50.471Z,88.37
2024-03-16T03:41:50.447Z,88.57
2024-03-16T03:42:50.470Z,88.68
2024-03-16T03:43:50.411Z,88.98
2024-03-16T03:44:50.401Z,88.68
2024-03-16T03:45:50.436Z,88.88
2024-03-16T03:46:50.378Z,88.68
2024-03-16T03:47:50.446Z,88.78
2024-03-16T03:48:50.386Z,89.09
2024-03-16T03:49:50.347Z,88.78
2024-03-16T03:50:50.353Z,88.68
2024-03-16T03:51:50.380Z,88.57
2024-03-16T03:52:50.316Z,88.78
2024-03-16T03:53:50.310Z,88.98
2024-03-16T03:54:50.340Z,88.98
2024-03-16T03:55:50.302Z,88.68
2024-03-16T03:56:50.280Z,88.68
2024-03-16T03:57:51.795Z,88.57
2024-03-16T03:58:50.252Z,88.88
2024-03-16T03:59:50.266Z,88.78
2024-03-16T04:00:50.268Z,88.88
2024-03-16T04:01:50.256Z,89.09
2024-03-16T04:02:50.214Z,88.98
2024-03-16T04:03:50.253Z,89.80
2024-03-16T04:04:50.254Z,90.52
2024-03-16T04:05:50.185Z,90.92
2024-03-16T04:06:50.213Z,91.03
2024-03-16T04:07:50.169Z,91.44
2024-03-16T04:08:50.155Z,91.64
2024-03-16T04:09:50.242Z,92.10
2024-03-16T04:10:50.163Z,91.89
2024-03-16T04:11:50.123Z,92.10
2024-03-16T04:12:50.096Z,92.19
2024-03-16T04:13:50.124Z,92.71
2024-03-16T04:14:50.082Z,92.50
2024-03-16T04:15:50.113Z,92.50
2024-03-16T04:16:50.070Z,92.50
2024-03-16T04:17:50.078Z,92.91
2024-03-16T04:18:50.084Z,93.16
2024-03-16T04:19:50.024Z,93.37
2024-03-16T04:20:50.013Z,93.26
2024-03-16T04:21:50.026Z,93.57
2024-03-16T04:22:50.023Z,93.47
2024-03-16T04:23:50.002Z,93.67
2024-03-16T04:24:50.015Z,93.57
2024-03-16T04:25:49.984Z,93.67
2024-03-16T04:26:49.960Z,93.47
2024-03-16T04:27:50.063Z,93.47
2024-03-16T04:28:49.922Z,93.47
2024-03-16T04:29:49.924Z,93.67
2024-03-16T04:30:49.965Z,93.67
2024-03-16T04:31:49.899Z,93.77
2024-03-16T04:32:50.581Z,93.98
2024-03-16T04:33:49.944Z,94.08
2024-03-16T04:34:49.875Z,94.18
2024-03-16T04:35:49.863Z,93.98
2024-03-16T04:36:49.960Z,93.77
2024-03-16T04:37:49.851Z,93.26
2024-03-16T04:38:49.816Z,93.06
2024-03-16T04:39:49.876Z,93.26
2024-03-16T04:40:49.797Z,93.06
2024-03-16T04:41:49.811Z,92.85
2024-03-16T04:42:49.792Z,93.16
2024-03-16T04:43:49.775Z,93.06
2024-03-16T04:44:49.771Z,93.06
2024-03-16T04:45:49.781Z,93.06
2024-03-16T04:46:49.768Z,92.85
2024-03-16T04:47:49.744Z,92.75
2024-03-16T04:48:49.715Z,92.85
2024-03-16T04:49:49.704Z,92.55
2024-03-16T04:50:49.716Z,92.44
2024-03-16T04:51:49.788Z,92.55
2024-03-16T04:52:49.678Z,92.65
2024-03-16T04:53:49.651Z,92.79
2024-03-16T04:54:49.708Z,92.79
2024-03-16T04:55:49.643Z,92.79
2024-03-16T04:56:49.621Z,92.69
2024-03-16T04:57:49.652Z,92.90
2024-03-16T04:58:49.617Z,92.79
2024-03-16T04:59:49.606Z,92.90
2024-03-16T05:00:49.734Z,92.79
2024-03-16T05:01:49.632Z,93.00
2024-03-16T05:02:49.620Z,93.00
2024-03-16T05:03:49.569Z,93.04
2024-03-16T05:04:49.564Z,93.15
2024-03-16T05:05:49.545Z,93.25
2024-03-16T05:06:49.531Z,93.15
2024-03-16T05:07:49.509Z,93.25
2024-03-16T05:08:49.514Z,93.15
2024-03-16T05:09:49.515Z,93.25
2024-03-16T05:10:49.509Z,93.35
2024-03-16T05:11:49.456Z,93.35
2024-03-16T05:12:49.506Z,93.25
2024-03-16T05:13:49.434Z,93.25
2024-03-16T05:14:49.443Z,93.15
2024-03-16T05:15:49.562Z,93.45
2024-03-16T05:16:49.540Z,93.35
2024-03-16T05:17:49.548Z,93.25
2024-03-16T05:18:49.851Z,93.25
2024-03-16T05:19:49.410Z,93.35
2024-03-16T05:20:49.365Z,93.35
2024-03-16T05:21:49.374Z,93.25
2024-03-16T05:22:49.347Z,93.35
2024-03-16T05:23:49.343Z,93.45
2024-03-16T05:24:49.333Z,93.60
2024-03-16T05:25:49.310Z,93.60
2024-03-16T05:26:49.300Z,93.80
2024-03-16T05:27:49.365Z,93.60
2024-03-16T05:28:49.302Z,93.70
2024-03-16T05:29:49.266Z,93.49
2024-03-16T05:30:49.307Z,93.49
2024-03-16T05:31:49.242Z,93.70
2024-03-16T05:32:49.299Z,93.29
2024-03-16T05:33:49.306Z,93.49
2024-03-16T05:34:49.218Z,93.49
2024-03-16T05:35:49.207Z,93.19
2024-03-16T05:36:49.210Z,93.08
2024-03-16T05:37:49.183Z,93.08
2024-03-16T05:38:49.198Z,93.19
2024-03-16T05:39:49.163Z,92.98
2024-03-16T05:40:49.149Z,92.98
2024-03-16T05:41:49.137Z,92.88
2024-03-16T05:42:49.218Z,92.88
2024-03-16T05:43:49.122Z,92.88
2024-03-16T05:44:49.103Z,92.88
2024-03-16T05:45:49.128Z,92.78
2024-03-16T05:46:49.084Z,92.88
2024-03-16T05:47:49.168Z,92.88
2024-03-16T05:48:49.091Z,92.78
2024-03-16T05:49:49.066Z,92.78
2024-03-16T05:50:49.038Z,92.98
2024-03-16T05:51:49.116Z,92.53
2024-03-16T05:52:49.024Z,92.57
2024-03-16T05:53:49.002Z,92.74
2024-03-16T05:54:49.017Z,92.47
2024-03-16T05:55:48.982Z,92.43
2024-03-16T05:56:48.992Z,92.12
2024-03-16T05:57:49.006Z,92.12
2024-03-16T05:58:48.954Z,92.12
2024-03-16T05:59:48.938Z,91.91
2024-03-16T06:00:48.956Z,91.71
2024-03-16T06:01:49.006Z,91.61
2024-03-16T06:02:48.916Z,91.50
2024-03-16T06:03:48.947Z,91.61
2024-03-16T06:04:48.930Z,91.50
2024-03-16T06:05:48.902Z,91.56
2024-03-16T06:06:48.942Z,91.56
2024-03-16T06:07:48.889Z,91.36
2024-03-16T06:08:48.857Z,91.26
2024-03-16T06:09:48.996Z,91.36
2024-03-16T06:10:49.038Z,91.16
2024-03-16T06:11:48.807Z,90.75
2024-03-16T06:12:48.931Z,90.95
2024-03-16T06:13:48.801Z,90.64
2024-03-16T06:14:48.789Z,90.54
2024-03-16T06:15:48.848Z,90.23
2024-03-16T06:16:48.771Z,90.09
2024-03-16T06:17:48.776Z,90.13
2024-03-16T06:18:49.084Z,90.19
2024-03-16T06:19:48.732Z,90.19
2024-03-16T06:20:48.730Z,89.68
2024-03-16T06:21:48.761Z,89.58
2024-03-16T06:22:48.748Z,89.83
2024-03-16T06:23:48.687Z,89.72
2024-03-16T06:24:48.771Z,89.68
2024-03-16T06:25:48.671Z,89.78
2024-03-16T06:26:48.666Z,89.78
2024-03-16T06:27:48.661Z,89.27
2024-03-16T06:28:48.634Z,89.37
2024-03-16T06:29:48.624Z,89.68
2024-03-16T06:30:49.930Z,89.58
2024-03-16T06:31:48.593Z,88.86
2024-03-16T06:32:48.665Z,89.06
2024-03-16T06:33:48.641Z,88.86
2024-03-16T06:34:48.570Z,88.76
2024-03-16T06:35:48.555Z,88.65
2024-03-16T06:36:49.924Z,88.65
2024-03-16T06:37:48.532Z,88.45
2024-03-16T06:38:48.561Z,88.31
2024-03-16T06:39:48.585Z,88.31
2024-03-16T06:40:48.502Z,87.90
2024-03-16T06:41:48.483Z,88.20
2024-03-16T06:42:48.672Z,87.35
2024-03-16T06:43:48.481Z,87.35
2024-03-16T06:44:48.469Z,87.55
2024-03-16T06:45:48.506Z,87.14
2024-03-16T06:46:48.432Z,86.63
2024-03-16T06:47:48.448Z,86.38
2024-03-16T06:48:48.481Z,86.18
2024-03-16T06:49:48.395Z,85.88
2024-03-16T06:50:48.391Z,85.47
2024-03-16T06:51:48.416Z,85.67
2024-03-16T06:52:48.383Z,84.85
2024-03-16T06:53:48.364Z,84.85
2024-03-16T06:54:48.388Z,84.65
2024-03-16T06:55:48.332Z,85.06
2024-03-16T06:56:48.327Z,84.95
2024-03-16T06:57:48.365Z,84.65
2024-03-16T06:58:48.322Z,84.14
2024-03-16T06:59:48.292Z,84.55
2024-03-16T07:00:48.313Z,84.24
2024-03-16T07:01:48.335Z,84.75
2024-03-16T07:02:48.278Z,85.06
2024-03-16T07:03:48.291Z,84.55
2024-03-16T07:04:48.234Z,84.65
2024-03-16T07:05:48.242Z,84.41
2024-03-16T07:06:48.283Z,84.20
2024-03-16T07:07:48.194Z,84.50
2024-03-16T07:08:48.196Z,83.79
2024-03-16T07:09:48.246Z,84.20
2024-03-16T07:10:48.188Z,83.89
2024-03-16T07:11:48.847Z,84.00
2024-03-16T07:12:48.203Z,83.89
2024-03-16T07:13:48.143Z,83.48
2024-03-16T07:14:48.143Z,83.89
2024-03-16T07:15:48.238Z,84.20
2024-03-16T07:16:48.108Z,84.00
2024-03-16T07:17:48.184Z,83.48
2024-03-16T07:18:48.115Z,83.69
2024-03-16T07:19:48.079Z,83.38
2024-03-16T07:20:48.081Z,83.59
2024-03-16T07:21:48.100Z,83.59
2024-03-16T07:22:48.050Z,83.59
2024-03-16T07:23:48.040Z,83.89
2024-03-16T07:24:48.056Z,83.48
2024-03-16T07:25:48.022Z,83.89
2024-03-16T07:26:48.000Z,83.38
2024-03-16T07:27:48.019Z,83.28
2024-03-16T07:28:47.978Z,83.38
2024-03-16T07:29:47.977Z,83.28
2024-03-16T07:30:48.006Z,83.69
2024-03-16T07:31:47.945Z,83.59
2024-03-16T07:32:47.957Z,83.59
2024-03-16T07:33:47.966Z,83.69
2024-03-16T07:34:47.926Z,84.30
2024-03-16T07:35:47.903Z,84.09
2024-03-16T07:36:47.946Z,83.89
2024-03-16T07:37:47.873Z,84.09
2024-03-16T07:38:47.889Z,83.48
2024-03-16T07:39:47.921Z,83.79
2024-03-16T07:40:47.869Z,83.48
2024-03-16T07:41:48.036Z,83.48
2024-03-16T07:42:47.834Z,83.79
2024-03-16T07:43:47.835Z,83.59
2024-03-16T07:44:47.810Z,83.69
2024-03-16T07:45:47.803Z,83.59
2024-03-16T07:46:47.810Z,83.18
2024-03-16T07:47:47.782Z,83.28
2024-03-16T07:48:47.813Z,83.48
2024-03-16T07:49:47.757Z,83.28
2024-03-16T07:50:47.754Z,83.38
2024-03-16T07:51:47.781Z,83.18
2024-03-16T07:52:47.761Z,83.59
2024-03-16T07:53:47.721Z,83.38
2024-03-16T07:54:47.725Z,84.00
2024-03-16T07:55:47.687Z,83.89
2024-03-16T07:56:49.732Z,83.69
2024-03-16T07:57:47.697Z,83.89
2024-03-16T07:58:47.669Z,83.79
2024-03-16T07:59:47.644Z,83.89
2024-03-16T08:00:47.674Z,84.41
2024-03-16T08:01:47.672Z,84.09
2024-03-16T08:02:47.627Z,83.89
2024-03-16T08:03:47.611Z,84.00
2024-03-16T08:04:47.598Z,84.09
2024-03-16T08:05:47.570Z,84.30
2024-03-16T08:06:47.609Z,84.71
2024-03-16T08:07:47.592Z,83.59
2024-03-16T08:08:47.574Z,83.48
2024-03-16T08:09:47.616Z,83.69
2024-03-16T08:10:47.542Z,84.09
2024-03-16T08:11:47.581Z,84.00
2024-03-16T08:12:47.524Z,84.09
2024-03-16T08:13:47.488Z,83.48
2024-03-16T08:14:47.482Z,83.79
2024-03-16T08:15:47.480Z,83.38
2024-03-16T08:16:47.499Z,83.18
2024-03-16T08:17:47.458Z,82.87
2024-03-16T08:18:47.485Z,83.48
2024-03-16T08:19:47.419Z,83.44
2024-03-16T08:20:47.422Z,83.24
2024-03-16T08:21:47.449Z,82.73
2024-03-16T08:22:47.396Z,82.73
2024-03-16T08:23:47.437Z,82.22
2024-03-16T08:24:47.402Z,81.91
2024-03-16T08:25:47.391Z,81.91
2024-03-16T08:26:47.369Z,82.53
2024-03-16T08:27:47.396Z,82.12
2024-03-16T08:28:47.347Z,82.12
2024-03-16T08:29:47.335Z,82.42
2024-03-16T08:30:47.366Z,82.22
2024-03-16T08:31:47.310Z,81.71
2024-03-16T08:32:47.447Z,82.18
2024-03-16T08:33:47.302Z,82.08
2024-03-16T08:34:47.274Z,81.87
2024-03-16T08:35:47.287Z,82.39
2024-03-16T08:36:47.265Z,82.08
2024-03-16T08:37:47.249Z,82.49
2024-03-16T08:38:47.264Z,83.14
2024-03-16T08:39:47.286Z,83.54
2024-03-16T08:40:47.213Z,83.14
2024-03-16T08:41:47.203Z,83.75
2024-03-16T08:42:47.231Z,83.54
2024-03-16T08:43:47.190Z,84.36
2024-03-16T08:44:47.174Z,83.95
2024-03-16T08:45:47.192Z,83.85
2024-03-16T08:46:47.198Z,84.16
2024-03-16T08:47:47.193Z,84.26
2024-03-16T08:48:47.147Z,83.85
2024-03-16T08:49:47.126Z,84.47
2024-03-16T08:50:47.101Z,84.88
2024-03-16T08:51:47.111Z,84.67
2024-03-16T08:52:47.062Z,83.95
2024-03-16T08:53:47.070Z,84.77
2024-03-16T08:54:47.112Z,84.57
2024-03-16T08:55:47.052Z,84.77
2024-03-16T08:56:47.037Z,84.36
2024-03-16T08:57:47.099Z,84.36
2024-03-16T08:58:47.696Z,83.75
2024-03-16T08:59:47.029Z,83.65
2024-03-16T09:00:47.106Z,84.16
2024-03-16T09:01:47.034Z,84.06
2024-03-16T09:02:46.967Z,83.61
2024-03-16T09:03:47.023Z,83.61
2024-03-16T09:04:48.691Z,83.71
2024-03-16T09:05:46.932Z,83.71
2024-03-16T09:06:46.942Z,83.61
2024-03-16T09:07:46.934Z,84.01
2024-03-16T09:08:46.915Z,84.12
2024-03-16T09:09:46.916Z,84.83
2024-03-16T09:10:46.876Z,84.63
2024-03-16T09:11:46.938Z,84.42
2024-03-16T09:12:46.893Z,84.74
2024-03-16T09:13:46.842Z,85.04
2024-03-16T09:14:46.835Z,85.35
2024-03-16T09:15:46.904Z,85.45
2024-03-16T09:16:46.806Z,85.75
2024-03-16T09:17:46.856Z,85.55
2024-03-16T09:18:46.794Z,85.55
2024-03-16T09:19:46.783Z,85.45
2024-03-16T09:20:46.759Z,85.41
2024-03-16T09:21:46.830Z,85.71
2024-03-16T09:22:46.780Z,85.30
2024-03-16T09:23:46.736Z,85.37
2024-03-16T09:24:46.761Z,84.66
2024-03-16T09:25:48.159Z,84.34
2024-03-16T09:26:46.717Z,84.34
2024-03-16T09:27:46.736Z,83.43
2024-03-16T09:28:46.682Z,83.53
2024-03-16T09:29:46.672Z,83.70
2024-03-16T09:30:46.810Z,83.70
2024-03-16T09:31:46.664Z,84.00
2024-03-16T09:32:46.640Z,83.09
2024-03-16T09:33:46.715Z,83.49
2024-03-16T09:34:46.614Z,83.80
2024-03-16T09:35:46.615Z,84.00
2024-03-16T09:36:47.969Z,83.70
2024-03-16T09:37:47.841Z,83.80
2024-03-16T09:38:46.569Z,84.20
2024-03-16T09:39:46.613Z,83.76
2024-03-16T09:40:46.556Z,83.35
2024-03-16T09:41:46.561Z,82.13
2024-03-16T09:42:46.552Z,82.33
2024-03-16T09:43:46.486Z,82.43
2024-03-16T09:44:46.480Z,81.93
2024-03-16T09:45:46.509Z,81.31
2024-03-16T09:46:46.454Z,81.82
2024-03-16T09:47:46.523Z,81.93
2024-03-16T09:48:46.443Z,81.72
2024-03-16T09:49:46.438Z,81.72
2024-03-16T09:50:46.415Z,81.72
2024-03-16T09:51:46.401Z,81.38
2024-03-16T09:52:46.377Z,81.68
2024-03-16T09:53:46.383Z,80.73
2024-03-16T09:54:46.382Z,80.52
2024-03-16T09:55:46.357Z,78.96
2024-03-16T09:56:46.341Z,79.68
2024-03-16T09:57:46.376Z,78.01
2024-03-16T09:58:46.320Z,78.52
2024-03-16T09:59:46.343Z,77.77
2024-03-16T10:00:46.361Z,77.67
2024-03-16T10:01:46.292Z,77.83
2024-03-16T10:02:46.272Z,75.84
2024-03-16T10:03:46.298Z,76.14
2024-03-16T10:04:46.286Z,75.73
2024-03-16T10:05:46.244Z,74.72
2024-03-16T10:06:46.264Z,74.82
2024-03-16T10:07:46.223Z,76.59
2024-03-16T10:08:46.231Z,75.98
2024-03-16T10:09:46.292Z,76.11
2024-03-16T10:10:46.281Z,76.62
2024-03-16T10:11:46.188Z,76.42
2024-03-16T10:12:46.208Z,76.92
2024-03-16T10:13:46.171Z,76.79
2024-03-16T10:14:46.143Z,76.07
2024-03-16T10:15:46.168Z,76.48
2024-03-16T10:16:46.134Z,76.25
2024-03-16T10:17:47.342Z,75.23
2024-03-16T10:18:46.122Z,74.52
2024-03-16T10:19:46.108Z,74.52
2024-03-16T10:20:46.080Z,74.21
2024-03-16T10:21:46.139Z,73.91
2024-03-16T10:22:46.075Z,74.07
2024-03-16T10:23:46.046Z,73.87
2024-03-16T10:24:46.056Z,73.46
2024-03-16T10:25:46.050Z,72.04
2024-03-16T10:26:46.016Z,71.94
2024-03-16T10:27:46.055Z,72.11
2024-03-16T10:28:45.995Z,72.41
2024-03-16T10:29:45.984Z,72.01
2024-03-16T10:30:46.030Z,71.36
2024-03-16T10:31:45.974Z,70.89
2024-03-16T10:32:45.960Z,70.45
2024-03-16T10:33:45.994Z,70.45
2024-03-16T10:34:45.925Z,70.86
2024-03-16T10:35:45.922Z,70.18
2024-03-16T10:36:45.984Z,69.37
2024-03-16T10:37:48.315Z,69.26
2024-03-16T10:38:45.879Z,69.87
2024-03-16T10:39:45.922Z,68.69
2024-03-16T10:40:45.862Z,68.89
2024-03-16T10:41:45.868Z,68.92
2024-03-16T10:42:45.841Z,70.25
2024-03-16T10:43:45.832Z,70.75
2024-03-16T10:44:45.825Z,70.79
2024-03-16T10:45:45.827Z,72.01
2024-03-16T10:46:45.826Z,73.33
2024-03-16T10:47:45.816Z,73.23
2024-03-16T10:48:45.776Z,73.54
2024-03-16T10:49:45.766Z,74.52
2024-03-16T10:50:45.765Z,75.53
2024-03-16T10:51:45.762Z,76.65
2024-03-16T10:52:45.730Z,78.62
2024-03-16T10:53:45.732Z,79.63
2024-03-16T10:54:45.713Z,80.99
2024-03-16T10:55:45.719Z,81.44
2024-03-16T10:56:45.691Z,82.56
2024-03-16T10:57:45.683Z,83.37
2024-03-16T10:58:45.676Z,83.72
2024-03-16T10:59:45.673Z,85.25
2024-03-16T11:00:45.672Z,84.78
2024-03-16T11:01:45.642Z,85.69
2024-03-16T11:02:45.624Z,87.63
2024-03-16T11:03:45.615Z,87.63
2024-03-16T11:04:45.616Z,89.26
2024-03-16T11:05:45.594Z,88.59
2024-03-16T11:06:45.585Z,86.96
2024-03-16T11:07:45.579Z,88.08
2024-03-16T11:08:45.586Z,89.92
2024-03-16T11:09:45.573Z,89.20
2024-03-16T11:10:45.635Z,88.49
2024-03-16T11:11:45.534Z,88.49
2024-03-16T11:12:45.703Z,87.37
2024-03-16T11:13:46.820Z,88.08
2024-03-16T11:14:45.515Z,87.98
2024-03-16T11:15:45.487Z,87.57
2024-03-16T11:16:45.472Z,87.67
2024-03-16T11:17:45.470Z,88.28
2024-03-16T11:18:45.483Z,88.49
2024-03-16T11:19:45.469Z,89.71
2024-03-16T11:20:45.438Z,89.61
2024-03-16T11:21:45.431Z,87.84
2024-03-16T11:22:45.401Z,88.24
2024-03-16T11:23:45.432Z,88.96
2024-03-16T11:24:45.439Z,88.49
2024-03-16T11:25:45.381Z,88.59
2024-03-16T11:26:45.361Z,88.69
2024-03-16T11:27:45.360Z,90.22
2024-03-16T11:28:45.355Z,90.53
2024-03-16T11:29:45.347Z,89.25
2024-03-16T11:30:45.318Z,90.63
2024-03-16T11:31:45.312Z,92.05
2024-03-16T11:32:45.316Z,90.99
2024-03-16T11:33:45.307Z,88.65
2024-03-16T11:34:45.280Z,88.34
2024-03-16T11:35:45.272Z,88.61
2024-03-16T11:36:45.252Z,87.49
2024-03-16T11:37:47.398Z,86.68
2024-03-16T11:38:45.234Z,87.59
2024-03-16T11:39:45.241Z,87.79
2024-03-16T11:40:45.209Z,86.88
2024-03-16T11:41:45.214Z,86.51
2024-03-16T11:42:45.205Z,86.71
2024-03-16T11:43:45.183Z,86.30
2024-03-16T11:44:45.162Z,87.94
2024-03-16T11:45:45.160Z,86.96
2024-03-16T11:46:45.159Z,86.96
2024-03-16T11:47:45.156Z,87.88
2024-03-16T11:48:45.127Z,88.08
2024-03-16T11:49:45.124Z,88.69
2024-03-16T11:50:45.115Z,86.49
2024-03-16T11:51:45.110Z,86.76
2024-03-16T11:52:45.088Z,88.28
2024-03-16T11:53:45.079Z,87.82
2024-03-16T11:54:45.074Z,87.71
2024-03-16T11:55:45.072Z,87.10
2024-03-16T11:56:45.108Z,88.12
2024-03-16T11:57:45.040Z,88.63
2024-03-16T11:58:45.020Z,88.43
2024-03-16T11:59:45.128Z,89.49
2024-03-16T12:00:45.099Z,89.79
2024-03-16T12:01:45.077Z,91.74
2024-03-16T12:02:44.978Z,92.49
2024-03-16T12:03:44.994Z,94.17
2024-03-16T12:04:44.950Z,95.19
2024-03-16T12:05:45.052Z,96.01
2024-03-16T12:06:44.932Z,95.60
2024-03-16T12:07:44.924Z,95.80
2024-03-16T12:08:44.940Z,94.11
2024-03-16T12:09:44.915Z,94.62
2024-03-16T12:10:44.948Z,94.56
2024-03-16T12:11:44.884Z,95.28
2024-03-16T12:12:44.861Z,95.38
2024-03-16T12:13:44.856Z,95.48
2024-03-16T12:14:44.870Z,95.94
2024-03-16T12:15:44.851Z,96.55
2024-03-16T12:16:44.821Z,96.14
2024-03-16T12:17:44.813Z,96.34
2024-03-16T12:18:44.798Z,93.79
2024-03-16T12:19:44.809Z,93.12
2024-03-16T12:20:44.780Z,94.14
2024-03-16T12:21:44.789Z,95.00
2024-03-16T12:22:44.756Z,97.11
2024-03-16T12:23:44.751Z,97.11
2024-03-16T12:24:44.762Z,94.29
2024-03-16T12:25:44.730Z,94.59
2024-03-16T12:26:44.712Z,96.13
2024-03-16T12:27:44.723Z,95.62
2024-03-16T12:28:44.724Z,95.21
2024-03-16T12:29:44.705Z,96.13
2024-03-16T12:30:44.666Z,95.62
2024-03-16T12:31:44.672Z,93.77
2024-03-16T12:32:44.647Z,94.23
2024-03-16T12:33:44.661Z,94.74
2024-03-16T12:34:44.621Z,95.25
2024-03-16T12:35:44.617Z,93.82
2024-03-16T12:36:44.602Z,93.10
2024-03-16T12:37:44.599Z,93.00
2024-03-16T12:38:44.593Z,93.51
2024-03-16T12:39:44.577Z,93.66
2024-03-16T12:40:44.575Z,95.15
2024-03-16T12:41:44.550Z,94.54
2024-03-16T12:42:44.554Z,95.25
2024-03-16T12:43:44.547Z,95.36
2024-03-16T12:44:44.514Z,94.02
2024-03-16T12:45:44.512Z,91.87
2024-03-16T12:46:44.498Z,92.08
2024-03-16T12:47:44.506Z,92.69
2024-03-16T12:48:44.481Z,92.90
2024-03-16T12:49:44.468Z,91.77
2024-03-16T12:50:44.451Z,91.05
2024-03-16T12:51:44.445Z,93.51
2024-03-16T12:52:44.444Z,94.33